Heuvelton, NY (13654)

1:30 PM EST on February 14, 2016 (GMT -0500)
APRSWXNET | | Change Station
CLOSE
Current Station
Personal Weather Station
Location: Morristown, NY
Elevation: 283 ft
Nearby Weather Stations
Active Advisory: Wind Chill Warning Active Notice: Record Report

Elev 283 ft 44.54 °N, 75.57 °W | Updated 33 minutes ago

Clear
Clear
-6 °F
Feels Like -18 °F
N
5
Wind Variable Wind from SSW
Gusts 10.0 mph

Today
High -- | Low -- °F
--% Chance of Precip.
Yesterday
High -- | Low -- °F
Precip. -- in
Pressure 30.59 in
Visibility 10.0 miles
Clouds Clear
Windchill -18 °F
Dew Point -18 °F
Humidity 55%
Rainfall in
Snow Depth Not available.
7:04 AM 5:28 PM
Waxing Crescent, 44% visible
METAR KMSS 141753Z AUTO 24008KT 10SM CLR M21/M29 A3055 RMK AO2 SLP359 T12111289 11211 21311 58011
Pressure 30.59 in
Visibility 10.0 miles
Clouds Clear
Windchill -18 °F
Dew Point -18 °F
Humidity 55%
Rainfall in
Snow Depth Not available.
7:04 AM 5:28 PM
Waxing Crescent, 44% visible
METAR KMSS 141753Z AUTO 24008KT 10SM CLR M21/M29 A3055 RMK AO2 SLP359 T12111289 11211 21311 58011

10-Day Weather Forecast

Almanac

Astronomy

Feb. 14, 2016 Rise Set
Actual Time
Civil Twilight
Nautical Twilight
Astronomical Twilight
Moon
Length of Visible Light
Length of Day
Tomorrow will be .
, % of the Moon is Illuminated

Today's Extremes

State Highs State Lows

Community

WunderPhotos

Upload Photos

1,892,869 photos uploaded!

WunderBlog® & News

Nearby

Air Quality

  Air Quality AQ Index Pollutant
Not available.

Snow Depth

Station Depth Elevation

Earthquake Activity

City Distance Mag. Time & Date
Minimum magnitude displayed is 2.5.

Coastal Water Temperatures

Place Temperature

Stations

Nearby Weather Stations

Station Location Temp. Windchill Dew Point Humidity Wind Precip. Elev Updated Type
                   

Watches & Warnings

Wind Chill Warning
Issued: 11:20 AM EST Feb. 14, 2016 – National Weather Service

... Wind chill warning remains in effect until 7 PM EST this
evening...

The National Weather Service in Burlington continues the wind
chill warning... until 7 PM EST this evening.

* Locations... all of northern New York... as well as central and
northern Vermont.

* Hazard types... dangerously low wind chill values.

* Wind chill readings... 25 to 35 below through mid-afternoon
before slowly warming.

* Timing... through 7 PM.

* Impacts... potential frostbite and hypothermia.

Precautionary/preparedness actions...

A wind chill warning means the combination of very cold air and
strong winds will create dangerously low wind chill values. This
will result in frostbite and lead to hypothermia or death if
precautions are not taken.

Please stay tuned to NOAA Weather Radio... your local media... or
go to www.Weather.Gov/Burlington for further updates on this
weather situation.